Terminal Aerodrome Forecast
Issued by NWS Wilmington, NC

Home | Current Version | Previous Version | Text Only | Print | Product List | Glossary On
Versions: 1 2 3 4 5 6 7 8 9 10 11 12 13 14 15
035
FTUS42 KILM 291759 CCA
TAFILM
TAF COR
KILM 291759Z 2918/3018 09004KT P6SM VCSH BKN029 BKN060
     FM292100 15007KT P6SM VCSH SCT020 SCT080 BKN140
     FM301500 16005KT P6SM BKN250 PROB30 3015/3018 P6SM -TSRA
      BKN050CB=

USA.gov is the U.S. government's official web portal to all federal, state and local government web resources and services.